createdAt,value
2023-05-11T00:01:24.463Z,3.00
2023-05-11T00:03:52.226Z,2.90
2023-05-11T00:06:19.324Z,3.00
2023-05-11T00:08:46.263Z,3.27
2023-05-11T00:11:13.069Z,3.00
2023-05-11T00:13:39.977Z,3.17
2023-05-11T00:16:07.159Z,3.30
2023-05-11T00:18:34.049Z,3.67
2023-05-11T00:21:01.046Z,3.17
2023-05-11T00:23:28.482Z,3.20
2023-05-11T00:25:55.455Z,3.27
2023-05-11T00:28:23.681Z,3.60
2023-05-11T00:30:50.958Z,3.40
2023-05-11T00:33:18.498Z,3.03
2023-05-11T00:35:45.550Z,2.90
2023-05-11T00:38:12.461Z,3.20
2023-05-11T00:40:39.397Z,3.13
2023-05-11T00:43:06.302Z,2.97
2023-05-11T00:45:34.885Z,4.27
2023-05-11T00:48:02.203Z,3.17
2023-05-11T00:50:29.300Z,3.10
2023-05-11T00:52:57.810Z,2.80
2023-05-11T00:55:24.820Z,3.20
2023-05-11T00:57:51.670Z,2.97
2023-05-11T01:00:18.729Z,2.80
2023-05-11T01:02:46.096Z,2.90
2023-05-11T01:05:13.300Z,2.80
2023-05-11T01:07:49.318Z,3.20
2023-05-11T01:10:33.652Z,3.20
2023-05-11T01:13:27.304Z,3.03
2023-05-11T01:16:00.749Z,2.90
2023-05-11T01:18:34.196Z,3.13
2023-05-11T01:21:06.973Z,3.17
2023-05-11T01:23:55.143Z,3.13
2023-05-11T01:26:25.519Z,2.80
2023-05-11T01:29:34.692Z,3.00
2023-05-11T01:32:11.093Z,3.00
2023-05-11T01:34:40.904Z,3.00
2023-05-11T01:37:19.692Z,2.97
2023-05-11T01:39:55.256Z,3.20
2023-05-11T01:42:26.327Z,2.80
2023-05-11T01:44:55.731Z,2.90
2023-05-11T01:47:25.207Z,2.83
2023-05-11T01:49:54.420Z,3.10
2023-05-11T01:52:25.818Z,3.03
2023-05-11T01:54:54.802Z,2.93
2023-05-11T01:57:22.706Z,3.20
2023-05-11T01:59:51.496Z,2.93
2023-05-11T02:02:19.927Z,3.00
2023-05-11T02:04:47.841Z,3.27
2023-05-11T02:07:16.678Z,3.07
2023-05-11T02:09:44.502Z,2.93
2023-05-11T02:12:13.424Z,3.07
2023-05-11T02:14:42.773Z,2.77
2023-05-11T02:17:11.332Z,3.10
2023-05-11T02:19:39.433Z,3.10
2023-05-11T02:22:08.016Z,2.80
2023-05-11T02:24:36.310Z,3.10
2023-05-11T02:27:03.706Z,2.83
2023-05-11T02:29:30.844Z,2.80
2023-05-11T02:32:04.771Z,2.70
2023-05-11T02:34:41.487Z,2.80
2023-05-11T02:37:12.955Z,3.17
2023-05-11T02:39:44.773Z,2.70
2023-05-11T02:42:21.953Z,3.00
2023-05-11T02:45:02.439Z,3.47
2023-05-11T02:47:37.227Z,3.10
2023-05-11T02:50:06.407Z,3.07
2023-05-11T02:52:34.684Z,3.10
2023-05-11T02:55:04.935Z,2.80
2023-05-11T02:57:31.940Z,3.17
2023-05-11T02:59:59.254Z,3.33
2023-05-11T03:02:26.650Z,3.37
2023-05-11T03:04:53.783Z,3.33
2023-05-11T03:07:21.396Z,3.33
2023-05-11T03:09:48.782Z,3.30
2023-05-11T03:12:16.220Z,3.43
2023-05-11T03:14:44.562Z,3.30
2023-05-11T03:17:13.322Z,3.40
2023-05-11T03:19:42.677Z,3.30
2023-05-11T03:22:10.706Z,3.60
2023-05-11T03:24:38.593Z,3.40
2023-05-11T03:27:08.178Z,3.53
2023-05-11T03:29:38.461Z,3.33
2023-05-11T03:32:05.574Z,3.20
2023-05-11T03:34:33.412Z,3.20
2023-05-11T03:37:01.179Z,3.43
2023-05-11T03:39:31.604Z,3.40
2023-05-11T03:42:04.148Z,3.57
2023-05-11T03:44:34.106Z,3.50
2023-05-11T03:47:04.301Z,3.30
2023-05-11T03:49:32.362Z,3.40
2023-05-11T03:51:59.958Z,3.27
2023-05-11T03:54:27.010Z,3.17
2023-05-11T03:56:53.839Z,3.10
2023-05-11T03:59:21.944Z,3.33
2023-05-11T04:01:53.578Z,3.30
2023-05-11T04:04:21.565Z,3.20
2023-05-11T04:06:48.533Z,3.40
2023-05-11T04:09:15.406Z,3.30
2023-05-11T04:11:42.256Z,3.50
2023-05-11T04:14:10.133Z,3.50
2023-05-11T04:16:37.214Z,3.23
2023-05-11T04:19:04.943Z,3.40
2023-05-11T04:21:32.682Z,3.70
2023-05-11T04:23:59.647Z,3.50
2023-05-11T04:26:27.042Z,3.20
2023-05-11T04:28:54.077Z,3.10
2023-05-11T04:31:21.006Z,3.60
2023-05-11T04:33:48.429Z,3.30
2023-05-11T04:36:15.948Z,3.40
2023-05-11T04:38:42.801Z,2.90
2023-05-11T04:41:09.705Z,3.17
2023-05-11T04:43:36.503Z,2.90
2023-05-11T04:46:03.828Z,3.03
2023-05-11T04:48:30.759Z,3.17
2023-05-11T04:50:57.893Z,2.80
2023-05-11T04:53:24.758Z,3.20
2023-05-11T04:55:51.601Z,2.97
2023-05-11T04:58:18.753Z,3.10
2023-05-11T05:00:45.822Z,2.90
2023-05-11T05:03:12.758Z,3.33
2023-05-11T05:05:39.715Z,3.20
2023-05-11T05:08:07.474Z,3.07
2023-05-11T05:10:34.423Z,3.00
2023-05-11T05:13:01.339Z,3.00
2023-05-11T05:15:28.209Z,3.27
2023-05-11T05:17:55.184Z,3.13
2023-05-11T05:20:22.121Z,3.00
2023-05-11T05:22:49.002Z,2.60
2023-05-11T05:25:16.002Z,3.07
2023-05-11T05:27:42.852Z,2.80
2023-05-11T05:30:09.942Z,2.80
2023-05-11T05:32:36.822Z,2.93
2023-05-11T05:35:04.144Z,2.67
2023-05-11T05:37:31.025Z,3.20
2023-05-11T05:39:57.929Z,2.40
2023-05-11T05:42:24.884Z,2.57
2023-05-11T05:44:52.382Z,2.50
2023-05-11T05:47:19.256Z,2.60
2023-05-11T05:49:46.181Z,2.70
2023-05-11T05:52:13.104Z,2.60
2023-05-11T05:54:39.993Z,2.70
2023-05-11T05:57:06.827Z,2.80
2023-05-11T05:59:33.788Z,2.70
2023-05-11T06:02:00.983Z,2.70
2023-05-11T06:04:27.974Z,2.40
2023-05-11T06:06:56.083Z,2.80
2023-05-11T06:09:22.961Z,2.60
2023-05-11T06:11:49.844Z,2.50
2023-05-11T06:14:16.704Z,2.50
2023-05-11T06:16:43.574Z,2.67
2023-05-11T06:19:10.517Z,2.70
2023-05-11T06:21:37.464Z,2.50
2023-05-11T06:24:04.615Z,2.50
2023-05-11T06:26:31.496Z,2.67
2023-05-11T06:28:58.420Z,2.30
2023-05-11T06:31:25.448Z,2.40
2023-05-11T06:33:52.413Z,2.43
2023-05-11T06:36:19.370Z,2.60
2023-05-11T06:38:46.230Z,2.30
2023-05-11T06:41:13.268Z,2.30
2023-05-11T06:43:40.167Z,2.13
2023-05-11T06:46:07.181Z,2.30
2023-05-11T06:48:34.130Z,2.43
2023-05-11T06:51:01.403Z,2.30
2023-05-11T06:53:28.396Z,2.43
2023-05-11T06:55:56.200Z,2.30
2023-05-11T06:58:23.250Z,1.90
2023-05-11T07:00:50.284Z,2.00
2023-05-11T07:03:17.522Z,1.90
2023-05-11T07:05:44.447Z,2.17
2023-05-11T07:08:11.319Z,2.17
2023-05-11T07:10:38.322Z,2.53
2023-05-11T07:13:05.791Z,2.13
2023-05-11T07:15:32.761Z,2.07
2023-05-11T07:18:01.448Z,2.03
2023-05-11T07:20:28.426Z,1.80
2023-05-11T07:22:59.518Z,2.07
2023-05-11T07:25:26.508Z,1.90
2023-05-11T07:27:53.459Z,1.80
2023-05-11T07:30:21.019Z,1.80
2023-05-11T07:32:48.244Z,1.90
2023-05-11T07:35:15.401Z,1.97
2023-05-11T07:37:42.754Z,1.93
2023-05-11T07:40:09.986Z,2.00
2023-05-11T07:42:36.885Z,2.00
2023-05-11T07:45:05.132Z,2.00
2023-05-11T07:47:33.691Z,2.00
2023-05-11T07:50:02.341Z,2.03
2023-05-11T07:52:29.210Z,2.17
2023-05-11T07:54:56.483Z,1.80
2023-05-11T07:57:23.356Z,1.97
2023-05-11T07:59:50.254Z,1.83
2023-05-11T08:02:18.932Z,2.00
2023-05-11T08:04:46.689Z,2.13
2023-05-11T08:07:13.874Z,1.83
2023-05-11T08:09:40.784Z,1.60
2023-05-11T08:12:07.924Z,1.73
2023-05-11T08:14:34.859Z,1.70
2023-05-11T08:17:01.733Z,1.50
2023-05-11T08:19:28.676Z,2.10
2023-05-11T08:21:55.631Z,1.73
2023-05-11T08:24:22.566Z,1.93
2023-05-11T08:26:49.823Z,2.33
2023-05-11T08:29:16.791Z,1.77
2023-05-11T08:31:43.659Z,2.07
2023-05-11T08:34:19.204Z,2.10
2023-05-11T08:36:47.229Z,2.25
2023-05-11T08:39:14.182Z,2.20
2023-05-11T08:41:41.122Z,1.90
2023-05-11T08:44:09.095Z,1.83
2023-05-11T08:46:40.110Z,2.05
2023-05-11T08:49:08.709Z,2.20
2023-05-11T08:51:35.772Z,1.80
2023-05-11T08:54:03.729Z,2.03
2023-05-11T08:56:31.969Z,2.30
2023-05-11T08:58:59.108Z,2.03
2023-05-11T09:01:29.083Z,2.00
2023-05-11T09:03:58.276Z,1.87
2023-05-11T09:06:26.730Z,2.15
2023-05-11T09:08:54.468Z,1.88
2023-05-11T09:11:22.915Z,2.05
2023-05-11T09:13:50.068Z,1.92
2023-05-11T09:16:35.664Z,2.03
2023-05-11T09:19:03.777Z,1.90
2023-05-11T09:21:31.692Z,1.80
2023-05-11T09:23:59.328Z,1.80
2023-05-11T09:26:28.526Z,1.70
2023-05-11T09:29:02.855Z,1.80
2023-05-11T09:31:41.945Z,1.77
2023-05-11T09:34:19.724Z,1.93
2023-05-11T09:36:53.092Z,1.90
2023-05-11T09:39:37.840Z,1.80
2023-05-11T09:42:21.143Z,1.90
2023-05-11T09:44:48.735Z,2.05
2023-05-11T09:47:17.724Z,1.73
2023-05-11T09:49:46.754Z,2.05
2023-05-11T09:52:18.959Z,2.03
2023-05-11T09:54:47.880Z,1.80
2023-05-11T09:57:29.958Z,2.25
2023-05-11T09:59:58.774Z,1.92
2023-05-11T10:02:31.221Z,1.90
2023-05-11T10:05:00.546Z,2.00
2023-05-11T10:07:40.225Z,2.10
2023-05-11T10:10:08.971Z,2.05
2023-05-11T10:12:40.622Z,2.00
2023-05-11T10:15:09.600Z,1.90
2023-05-11T10:17:37.427Z,1.90
2023-05-11T10:20:06.723Z,1.70
2023-05-11T10:22:36.257Z,1.98
2023-05-11T10:25:03.467Z,2.05
2023-05-11T10:27:31.978Z,2.10
2023-05-11T10:29:59.571Z,2.22
2023-05-11T10:32:28.116Z,2.17
2023-05-11T10:34:56.995Z,2.30
2023-05-11T10:37:24.417Z,2.08
2023-05-11T10:39:52.044Z,2.10
2023-05-11T10:42:24.592Z,2.53
2023-05-11T10:45:09.128Z,1.90
2023-05-11T10:48:07.449Z,2.10
2023-05-11T10:51:19.342Z,2.38
2023-05-11T10:53:54.927Z,2.17
2023-05-11T10:56:39.890Z,2.10
2023-05-11T10:59:35.777Z,1.90
2023-05-11T11:02:04.176Z,1.80
2023-05-11T11:04:51.925Z,2.08
2023-05-11T11:07:20.209Z,1.95
2023-05-11T11:09:57.102Z,1.90
2023-05-11T11:12:27.420Z,1.90
2023-05-11T11:15:02.857Z,2.08
2023-05-11T11:17:32.639Z,2.15
2023-05-11T11:20:04.571Z,2.08
2023-05-11T11:22:37.201Z,2.20
2023-05-11T11:25:05.818Z,2.25
2023-05-11T11:27:41.960Z,1.90
2023-05-11T11:30:30.981Z,2.17
2023-05-11T11:33:13.139Z,2.20
2023-05-11T11:35:40.281Z,1.83
2023-05-11T11:38:09.411Z,2.25
2023-05-11T11:40:51.227Z,2.20
2023-05-11T11:43:23.152Z,2.08
2023-05-11T11:46:03.216Z,2.20
2023-05-11T11:48:41.641Z,2.20
2023-05-11T11:51:10.710Z,2.20
2023-05-11T11:53:37.966Z,2.15
2023-05-11T11:56:15.399Z,2.80
2023-05-11T11:58:42.569Z,2.13
2023-05-11T12:01:12.941Z,2.50
2023-05-11T12:03:44.093Z,2.70
2023-05-11T12:06:12.191Z,2.50
2023-05-11T12:08:40.839Z,2.50
2023-05-11T12:11:08.427Z,2.17
2023-05-11T12:13:36.082Z,2.10
2023-05-11T12:16:09.538Z,2.03
2023-05-11T12:18:36.874Z,2.30
2023-05-11T12:21:04.021Z,2.08
2023-05-11T12:23:31.382Z,2.22
2023-05-11T12:26:06.745Z,2.30
2023-05-11T12:28:34.130Z,2.40
2023-05-11T12:31:01.656Z,2.42
2023-05-11T12:33:28.659Z,2.20
2023-05-11T12:35:57.225Z,2.20
2023-05-11T12:38:24.120Z,2.38
2023-05-11T12:40:54.091Z,2.13
2023-05-11T12:43:23.676Z,2.25
2023-05-11T12:45:50.845Z,2.47
2023-05-11T12:48:18.299Z,2.20
2023-05-11T12:50:46.635Z,2.13
2023-05-11T12:53:18.984Z,2.72
2023-05-11T12:55:57.953Z,2.20
2023-05-11T12:58:35.394Z,2.10
2023-05-11T13:01:02.428Z,2.30
2023-05-11T13:03:31.274Z,2.45
2023-05-11T13:06:09.545Z,2.38
2023-05-11T13:08:46.616Z,2.40
2023-05-11T13:11:25.437Z,2.20
2023-05-11T13:13:57.211Z,2.13
2023-05-11T13:16:34.640Z,2.22
2023-05-11T13:19:11.268Z,2.60
2023-05-11T13:21:46.892Z,2.47
2023-05-11T13:24:21.056Z,2.30
2023-05-11T13:26:47.988Z,2.20
2023-05-11T13:29:15.230Z,2.40
2023-05-11T13:31:52.551Z,2.15
2023-05-11T13:34:20.310Z,2.60
2023-05-11T13:36:47.539Z,2.20
2023-05-11T13:39:14.655Z,2.08
2023-05-11T13:41:41.553Z,2.45
2023-05-11T13:44:08.659Z,2.30
2023-05-11T13:46:35.840Z,2.53
2023-05-11T13:49:04.724Z,2.47
2023-05-11T13:51:32.293Z,2.20
2023-05-11T13:54:00.970Z,2.55
2023-05-11T13:56:28.166Z,2.30
2023-05-11T13:58:55.203Z,2.42
2023-05-11T14:01:22.774Z,2.45
2023-05-11T14:03:53.528Z,2.50
2023-05-11T14:06:23.224Z,2.20
2023-05-11T14:08:50.271Z,2.40
2023-05-11T14:11:17.465Z,2.42
2023-05-11T14:13:44.361Z,2.40
2023-05-11T14:16:11.382Z,2.25
2023-05-11T14:18:38.388Z,2.20
2023-05-11T14:21:05.349Z,2.17
2023-05-11T14:23:32.180Z,2.60
2023-05-11T14:25:59.091Z,2.50
2023-05-11T14:28:26.288Z,2.10
2023-05-11T14:30:53.303Z,2.13
2023-05-11T14:33:20.247Z,2.70
2023-05-11T14:35:48.983Z,2.40
2023-05-11T14:38:16.131Z,2.15
2023-05-11T14:40:44.090Z,2.30
2023-05-11T14:43:12.167Z,2.30
2023-05-11T14:45:43.973Z,2.30
2023-05-11T14:48:11.576Z,2.30
2023-05-11T14:50:38.742Z,2.10
2023-05-11T14:53:05.912Z,2.35
2023-05-11T14:55:32.845Z,2.10
2023-05-11T14:57:59.820Z,2.22
2023-05-11T15:00:26.772Z,2.20
2023-05-11T15:02:56.848Z,2.30
2023-05-11T15:05:24.167Z,2.10
2023-05-11T15:07:51.160Z,2.00
2023-05-11T15:10:18.122Z,1.90
2023-05-11T15:12:45.088Z,3.00
2023-05-11T15:15:12.212Z,2.00
2023-05-11T15:17:39.423Z,1.92
2023-05-11T15:20:07.579Z,2.20
2023-05-11T15:22:34.504Z,2.00
2023-05-11T15:25:01.513Z,1.77
2023-05-11T15:27:28.718Z,2.00
2023-05-11T15:29:55.760Z,2.03
2023-05-11T15:32:23.059Z,1.88
2023-05-11T15:34:59.399Z,2.28
2023-05-11T15:37:27.289Z,1.95
2023-05-11T15:39:54.311Z,2.22
2023-05-11T15:42:21.495Z,1.98
2023-05-11T15:44:48.395Z,2.20
2023-05-11T15:47:15.311Z,2.17
2023-05-11T15:49:42.299Z,1.90
2023-05-11T15:52:09.538Z,2.10
2023-05-11T15:54:36.395Z,2.17
2023-05-11T15:57:03.454Z,2.30
2023-05-11T15:59:32.608Z,2.20
2023-05-11T16:01:59.757Z,2.10
2023-05-11T16:04:26.877Z,2.20
2023-05-11T16:06:53.908Z,2.00
2023-05-11T16:09:20.809Z,2.08
2023-05-11T16:11:47.683Z,2.10
2023-05-11T16:14:14.639Z,2.10
2023-05-11T16:16:41.749Z,2.30
2023-05-11T16:19:08.811Z,2.50
2023-05-11T16:21:35.811Z,2.17
2023-05-11T16:24:02.754Z,2.40
2023-05-11T16:26:31.130Z,2.20
2023-05-11T16:28:58.073Z,2.10
2023-05-11T16:31:24.938Z,2.40
2023-05-11T16:33:51.827Z,2.38
2023-05-11T16:36:18.764Z,2.17
2023-05-11T16:38:45.869Z,2.25
2023-05-11T16:41:13.055Z,2.20
2023-05-11T16:43:41.948Z,2.25
2023-05-11T16:46:09.639Z,2.35
2023-05-11T16:48:36.706Z,2.20
2023-05-11T16:51:04.000Z,2.20
2023-05-11T16:53:31.811Z,2.20
2023-05-11T16:55:58.798Z,2.10
2023-05-11T16:58:26.001Z,1.83
2023-05-11T17:00:53.669Z,2.10
2023-05-11T17:03:23.759Z,2.03
2023-05-11T17:05:50.747Z,1.73
2023-05-11T17:08:18.092Z,2.00
2023-05-11T17:10:45.715Z,1.90
2023-05-11T17:13:12.943Z,1.90
2023-05-11T17:15:39.811Z,1.70
2023-05-11T17:18:06.904Z,1.80
2023-05-11T17:20:33.896Z,1.73
2023-05-11T17:23:01.006Z,1.70
2023-05-11T17:25:30.212Z,1.70
2023-05-11T17:27:57.536Z,1.90
2023-05-11T17:30:30.056Z,2.00
2023-05-11T17:33:03.439Z,1.60
2023-05-11T17:35:30.526Z,1.87
2023-05-11T17:37:57.518Z,1.70
2023-05-11T17:40:24.449Z,1.90
2023-05-11T17:42:51.420Z,2.10
2023-05-11T17:45:18.949Z,1.70
2023-05-11T17:47:50.378Z,1.60
2023-05-11T17:50:17.611Z,2.00
2023-05-11T17:52:44.617Z,1.93
2023-05-11T17:55:11.618Z,1.80
2023-05-11T17:57:38.584Z,1.83
2023-05-11T18:00:07.121Z,1.97
2023-05-11T18:02:34.528Z,1.80
2023-05-11T18:05:01.917Z,2.00
2023-05-11T18:07:28.859Z,1.80
2023-05-11T18:09:55.794Z,1.77
2023-05-11T18:12:23.012Z,1.90
2023-05-11T18:14:49.854Z,2.10
2023-05-11T18:17:17.222Z,1.90
2023-05-11T18:19:44.243Z,2.03
2023-05-11T18:22:11.760Z,1.90
2023-05-11T18:24:38.684Z,2.10
2023-05-11T18:27:05.924Z,2.07
2023-05-11T18:29:33.083Z,1.80
2023-05-11T18:32:00.245Z,2.30
2023-05-11T18:34:27.685Z,2.00
2023-05-11T18:36:56.820Z,2.10
2023-05-11T18:39:24.322Z,2.17
2023-05-11T18:41:51.437Z,2.47
2023-05-11T18:44:19.320Z,2.40
2023-05-11T18:46:46.331Z,2.40
2023-05-11T18:49:14.221Z,2.50
2023-05-11T18:51:41.355Z,2.50
2023-05-11T18:54:08.936Z,2.50
2023-05-11T18:56:36.322Z,2.53
2023-05-11T18:59:03.602Z,2.90
2023-05-11T19:01:46.159Z,2.53
2023-05-11T19:04:17.784Z,3.00
2023-05-11T19:06:45.056Z,3.10
2023-05-11T19:09:12.001Z,3.33
2023-05-11T19:11:38.857Z,2.93
2023-05-11T19:14:07.563Z,3.10
2023-05-11T19:16:35.831Z,3.53
2023-05-11T19:19:02.946Z,3.00
2023-05-11T19:21:29.927Z,3.00
2023-05-11T19:23:57.194Z,3.03
2023-05-11T19:26:24.154Z,3.03
2023-05-11T19:28:51.048Z,2.80
2023-05-11T19:31:17.960Z,3.33
2023-05-11T19:33:44.877Z,3.20
2023-05-11T19:36:11.822Z,3.20
2023-05-11T19:38:38.780Z,3.03
2023-05-11T19:41:06.259Z,3.30
2023-05-11T19:43:33.756Z,3.20
2023-05-11T19:46:03.912Z,3.30
2023-05-11T19:48:31.321Z,3.10
2023-05-11T19:50:58.947Z,3.37
2023-05-11T19:53:27.818Z,3.47
2023-05-11T19:55:54.760Z,3.80
2023-05-11T19:58:22.310Z,3.43
2023-05-11T20:00:49.278Z,3.20
2023-05-11T20:03:16.982Z,3.30
2023-05-11T20:05:44.541Z,3.60
2023-05-11T20:08:12.610Z,3.60
2023-05-11T20:10:39.567Z,3.80
2023-05-11T20:13:10.147Z,3.97
2023-05-11T20:15:37.118Z,3.80
2023-05-11T20:18:04.159Z,4.40
2023-05-11T20:20:32.864Z,4.30
2023-05-11T20:23:00.767Z,4.00
2023-05-11T20:25:27.761Z,4.27
2023-05-11T20:27:54.658Z,3.97
2023-05-11T20:30:21.685Z,4.33
2023-05-11T20:35:18.914Z,3.80
2023-05-11T20:37:46.015Z,4.33
2023-05-11T20:40:13.377Z,4.03
2023-05-11T20:42:40.336Z,3.90
2023-05-11T20:45:08.353Z,4.40
2023-05-11T20:47:35.422Z,4.03
2023-05-11T20:50:02.765Z,4.00
2023-05-11T20:52:30.202Z,4.40
2023-05-11T20:54:57.092Z,4.20
2023-05-11T20:57:24.330Z,4.10
2023-05-11T21:02:21.162Z,4.03
2023-05-11T21:04:48.492Z,4.30
2023-05-11T21:07:15.428Z,4.30
2023-05-11T21:09:42.372Z,4.60
2023-05-11T21:12:09.206Z,4.53
2023-05-11T21:14:36.122Z,4.60
2023-05-11T21:17:02.968Z,4.30
2023-05-11T21:19:29.889Z,4.30
2023-05-11T21:21:56.763Z,4.60
2023-05-11T21:24:23.691Z,4.03
2023-05-11T21:26:50.605Z,4.00
2023-05-11T21:29:17.887Z,4.40
2023-05-11T21:31:44.757Z,4.00
2023-05-11T21:34:11.997Z,4.30
2023-05-11T21:36:40.996Z,4.30
2023-05-11T21:39:07.921Z,4.10
2023-05-11T21:41:34.792Z,4.00
2023-05-11T21:44:01.804Z,4.23
2023-05-11T21:46:28.672Z,4.13
2023-05-11T21:48:55.668Z,3.80
2023-05-11T21:51:22.590Z,4.23
2023-05-11T21:53:49.475Z,3.90
2023-05-11T21:56:16.441Z,4.20
2023-05-11T21:58:43.423Z,4.00
2023-05-11T22:01:10.351Z,3.63
2023-05-11T22:03:37.355Z,3.90
2023-05-11T22:06:04.463Z,3.60
2023-05-11T22:08:31.583Z,4.07
2023-05-11T22:10:58.495Z,3.67
2023-05-11T22:13:26.144Z,3.90
2023-05-11T22:15:53.048Z,3.90
2023-05-11T22:18:19.955Z,3.90
2023-05-11T22:20:47.021Z,4.10
2023-05-11T22:23:15.547Z,4.00
2023-05-11T22:25:42.854Z,4.10
2023-05-11T22:28:10.157Z,3.60
2023-05-11T22:30:37.690Z,3.77
2023-05-11T22:33:04.685Z,3.83
2023-05-11T22:35:31.636Z,4.30
2023-05-11T22:37:58.767Z,4.00
2023-05-11T22:40:25.754Z,3.90
2023-05-11T22:42:52.836Z,3.90
2023-05-11T22:45:19.650Z,3.57
2023-05-11T22:47:46.894Z,3.90
2023-05-11T22:50:13.761Z,4.50
2023-05-11T22:52:40.743Z,4.30
2023-05-11T22:55:08.161Z,4.10
2023-05-11T22:57:35.069Z,4.00
2023-05-11T23:00:02.082Z,4.00
2023-05-11T23:02:29.970Z,4.10
2023-05-11T23:04:57.622Z,3.60
2023-05-11T23:07:24.579Z,4.10
2023-05-11T23:09:52.982Z,4.20
2023-05-11T23:12:20.116Z,4.00
2023-05-11T23:14:47.303Z,4.13
2023-05-11T23:17:14.561Z,3.90
2023-05-11T23:19:43.248Z,3.77
2023-05-11T23:22:10.316Z,4.37
2023-05-11T23:24:37.235Z,4.00
2023-05-11T23:27:04.341Z,3.80
2023-05-11T23:29:31.233Z,4.00
2023-05-11T23:31:58.167Z,3.97
2023-05-11T23:34:25.063Z,3.43
2023-05-11T23:36:51.965Z,3.80
2023-05-11T23:39:19.138Z,4.00
2023-05-11T23:41:46.227Z,4.30
2023-05-11T23:44:13.053Z,3.97
2023-05-11T23:46:39.865Z,4.03
2023-05-11T23:49:06.749Z,4.00
2023-05-11T23:51:33.620Z,4.37
2023-05-11T23:54:00.480Z,3.70
2023-05-11T23:56:27.358Z,4.00
2023-05-11T23:58:54.408Z,3.90
